Time;durP1;ratioP1;P1;durP2;ratioP2;P2;SDS_P1;SDS_P2;PMS_P1;PMS_P2;Temp;Humidity;BMP_temperature;BMP_pressure;BME280_temperature;BME280_humidity;BME280_pressure;Samples;Min_cycle;Max_cycle;Signal;HPM_P1;HPM_P2
2023/08/25 00:02:25;;;;;;;22.98;16.90;;;;;;;23.25;100.00;100063.47;5077168;28;20703;-64
2023/08/25 00:04:55;;;;;;;20.15;16.65;;;;;;;23.26;100.00;100075.94;5076436;28;20267;-63
2023/08/25 00:07:23;;;;;;;18.73;16.65;;;;;;;23.28;100.00;100081.94;5077627;28;20208;-65
2023/08/25 00:09:50;;;;;;;21.98;17.85;;;;;;;23.33;100.00;100079.31;5077798;28;20215;-64
2023/08/25 00:12:18;;;;;;;18.52;16.13;;;;;;;23.34;99.59;100070.13;5076643;28;20907;-63
2023/08/25 00:14:46;;;;;;;20.38;16.23;;;;;;;23.36;100.00;100068.00;5078338;28;20231;-65
2023/08/25 00:17:13;;;;;;;24.70;17.52;;;;;;;23.37;99.96;100071.53;5075922;28;20237;-63
2023/08/25 00:19:41;;;;;;;18.33;15.50;;;;;;;23.37;100.00;100077.78;5075977;28;20207;-64
2023/08/25 00:22:10;;;;;;;16.38;14.55;;;;;;;23.37;98.60;100072.38;5076987;28;20314;-64
2023/08/25 00:24:38;;;;;;;23.33;17.23;;;;;;;23.34;100.00;100059.31;5077531;28;20211;-64
2023/08/25 00:27:06;;;;;;;21.52;19.15;;;;;;;23.34;98.74;100059.31;5076575;28;20196;-64
2023/08/25 00:29:33;;;;;;;21.90;19.63;;;;;;;23.34;97.36;100059.31;5073896;28;20209;-64
2023/08/25 00:32:02;;;;;;;21.92;18.65;;;;;;;23.33;98.74;100065.78;5079110;28;20238;-65
2023/08/25 00:34:30;;;;;;;21.75;19.45;;;;;;;23.32;97.24;100064.13;5074414;28;20206;-64
2023/08/25 00:36:59;;;;;;;21.40;19.13;;;;;;;23.31;98.69;100057.06;5073370;28;20219;-64
2023/08/25 00:39:31;;;;;;;22.10;19.67;;;;;;;23.28;98.92;100054.88;5076318;28;20207;-65
2023/08/25 00:41:59;;;;;;;25.40;19.85;;;;;;;23.16;100.00;100052.19;5078324;28;20234;-63
2023/08/25 00:44:26;;;;;;;28.17;19.70;;;;;;;23.09;99.37;100062.34;5076980;28;20617;-64
2023/08/25 00:46:54;;;;;;;22.92;19.65;;;;;;;23.09;99.81;100077.75;5077553;28;20203;-64
2023/08/25 00:49:23;;;;;;;21.88;19.63;;;;;;;23.12;100.00;100071.88;5072158;28;20218;-65
2023/08/25 00:51:52;;;;;;;23.50;20.85;;;;;;;23.09;100.00;100062.34;5077262;28;20294;-65
2023/08/25 00:54:22;;;;;;;23.73;21.30;;;;;;;23.06;100.00;100079.03;5078287;28;20214;-64
2023/08/25 00:56:51;;;;;;;26.65;21.52;;;;;;;23.09;100.00;100088.56;5078306;28;20659;-63
2023/08/25 00:59:19;;;;;;;23.95;20.60;;;;;;;23.13;100.00;100084.34;5074233;28;20218;-64
2023/08/25 01:01:47;;;;;;;25.13;22.40;;;;;;;23.15;100.00;100066.78;5074696;28;20280;-63
2023/08/25 01:04:15;;;;;;;24.45;21.95;;;;;;;23.10;100.00;100068.56;5078089;28;20630;-63
2023/08/25 01:06:42;;;;;;;24.70;22.00;;;;;;;22.99;100.00;100066.72;5077097;28;20202;-65
2023/08/25 01:09:10;;;;;;;25.00;21.77;;;;;;;23.01;100.00;100076.25;5074978;28;20295;-64
2023/08/25 01:11:49;;;;;;;25.10;21.85;;;;;;;23.02;100.00;100071.66;5074264;28;20221;-64
2023/08/25 01:14:24;;;;;;;23.48;20.80;;;;;;;23.07;100.00;100063.63;5073846;28;20297;-65
2023/08/25 01:17:02;;;;;;;24.60;21.60;;;;;;;23.08;100.00;100070.69;5071987;28;20203;-64
2023/08/25 01:19:45;;;;;;;25.58;22.15;;;;;;;23.10;100.00;100073.97;5074472;28;20230;-64
2023/08/25 01:22:17;;;;;;;28.33;22.73;;;;;;;23.08;100.00;100073.41;5073924;28;20298;-64
2023/08/25 01:24:50;;;;;;;32.95;25.02;;;;;;;23.08;100.00;100068.81;5075998;28;20559;-64
2023/08/25 01:27:20;;;;;;;28.90;25.33;;;;;;;23.10;100.00;100068.56;5072256;28;20200;-64
2023/08/25 01:29:48;;;;;;;32.00;25.40;;;;;;;23.10;100.00;100069.41;5075279;28;20294;-64
2023/08/25 01:32:16;;;;;;;30.42;27.13;;;;;;;23.15;100.00;100068.66;5074153;28;20732;-65
2023/08/25 01:34:46;;;;;;;35.55;29.15;;;;;;;23.16;100.00;100062.19;5073250;28;20203;-64
2023/08/25 01:37:19;;;;;;;34.17;28.17;;;;;;;23.06;100.00;100057.41;5075955;28;20286;-64
2023/08/25 01:39:49;;;;;;;35.95;31.00;;;;;;;22.98;100.00;100049.66;5075481;28;20202;-64
2023/08/25 01:42:22;;;;;;;36.53;28.85;;;;;;;22.93;100.00;100043.34;5073339;28;20844;-63
2023/08/25 01:44:51;;;;;;;35.17;30.17;;;;;;;22.94;100.00;100045.00;5074517;28;20261;-64
2023/08/25 01:47:23;;;;;;;39.10;30.33;;;;;;;22.97;100.00;100044.50;5077635;28;20294;-64
2023/08/25 01:49:52;;;;;;;36.08;32.10;;;;;;;23.00;100.00;100044.03;5075962;28;20203;-64
2023/08/25 01:52:21;;;;;;;35.92;30.63;;;;;;;22.94;100.00;100039.59;5075391;28;20298;-64
2023/08/25 01:54:49;;;;;;;36.45;30.17;;;;;;;22.94;100.00;100058.50;5070281;28;20233;-65
2023/08/25 01:57:19;;;;;;;35.85;29.67;;;;;;;22.99;100.00;100056.72;5072559;28;20683;-64
2023/08/25 01:59:46;;;;;;;36.80;29.83;;;;;;;23.04;100.00;100054.13;5073323;28;20317;-65
2023/08/25 02:02:14;;;;;;;33.38;29.65;;;;;;;23.03;100.00;100030.03;5076771;28;20227;-63
2023/08/25 02:04:42;;;;;;;38.05;31.05;;;;;;;22.97;100.00;100028.28;5072938;28;20199;-64
2023/08/25 02:07:09;;;;;;;35.40;30.00;;;;;;;22.87;100.00;100034.28;5074364;28;20238;-64
2023/08/25 02:09:37;;;;;;;34.47;29.33;;;;;;;22.83;100.00;100035.84;5073974;28;20265;-65
2023/08/25 02:12:05;;;;;;;33.50;28.50;;;;;;;22.87;100.00;100043.22;5075833;28;20235;-63
2023/08/25 02:14:34;;;;;;;32.17;28.08;;;;;;;22.95;100.00;100049.34;5070497;28;20285;-64
2023/08/25 02:17:02;;;;;;;31.90;26.13;;;;;;;23.01;100.00;100046.50;5074488;28;20265;-64
2023/08/25 02:19:30;;;;;;;33.03;25.85;;;;;;;23.03;100.00;100046.25;5077478;28;20681;-66
2023/08/25 02:21:58;;;;;;;29.48;24.45;;;;;;;23.03;100.00;100044.38;5073641;28;20702;-65
2023/08/25 02:24:25;;;;;;;30.35;24.67;;;;;;;23.02;100.00;100039.22;5074452;28;20330;-64
2023/08/25 02:26:53;;;;;;;30.02;24.77;;;;;;;22.98;100.00;100033.44;5074900;28;20578;-64
2023/08/25 02:29:21;;;;;;;30.90;27.60;;;;;;;22.91;100.00;100034.66;5074590;28;20218;-65
2023/08/25 02:31:50;;;;;;;26.98;24.08;;;;;;;22.83;100.00;100031.25;5075088;28;20207;-64
2023/08/25 02:34:18;;;;;;;31.60;24.77;;;;;;;22.82;100.00;100018.81;5071736;28;20264;-63
2023/08/25 02:36:46;;;;;;;31.08;24.90;;;;;;;22.84;100.00;100027.50;5076176;28;20265;-64
2023/08/25 02:39:14;;;;;;;30.05;22.45;;;;;;;22.86;100.00;100017.28;5073048;28;20211;-64
2023/08/25 02:41:42;;;;;;;27.27;23.83;;;;;;;22.88;100.00;100027.81;5072323;28;20222;-64
2023/08/25 02:44:10;;;;;;;29.92;26.55;;;;;;;22.87;100.00;100016.19;5075511;28;20602;-64
2023/08/25 02:46:37;;;;;;;29.35;26.05;;;;;;;22.88;100.00;99998.91;5070632;28;20231;-64
2023/08/25 02:49:06;;;;;;;29.38;26.17;;;;;;;22.75;100.00;99993.78;5072465;28;20238;-65
2023/08/25 02:51:34;;;;;;;28.95;25.85;;;;;;;22.71;100.00;100002.56;5071545;28;20195;-65
2023/08/25 02:54:02;;;;;;;32.28;28.00;;;;;;;22.58;100.00;99990.16;5075147;28;20207;-66
2023/08/25 02:56:29;;;;;;;31.15;27.73;;;;;;;22.53;100.00;99992.75;5076469;28;20242;-64
2023/08/25 02:58:57;;;;;;;30.27;26.92;;;;;;;22.58;100.00;99987.47;5072011;28;20199;-64
2023/08/25 03:01:25;;;;;;;32.85;27.63;;;;;;;22.56;100.00;99981.47;5074149;28;20211;-65
2023/08/25 03:03:53;;;;;;;36.05;28.85;;;;;;;22.60;100.00;99982.66;5073594;28;20227;-64
2023/08/25 03:06:22;;;;;;;35.33;29.33;;;;;;;22.58;100.00;99982.06;5071469;28;20214;-65
2023/08/25 03:08:49;;;;;;;35.47;29.50;;;;;;;22.46;100.00;99981.25;5074382;28;20719;-63
2023/08/25 03:11:17;;;;;;;33.63;30.02;;;;;;;22.46;100.00;99973.13;5070834;28;20666;-64
2023/08/25 03:13:45;;;;;;;33.63;29.27;;;;;;;22.50;100.00;99971.63;5075007;28;20211;-63
2023/08/25 03:16:13;;;;;;;39.67;27.33;;;;;;;22.56;100.00;99969.84;5071847;28;20247;-64
2023/08/25 03:18:41;;;;;;;29.75;25.75;;;;;;;22.58;100.00;99963.13;5072974;28;20218;-65
2023/08/25 03:21:09;;;;;;;31.83;26.70;;;;;;;22.53;100.00;99953.03;5072824;28;20276;-65
2023/08/25 03:23:38;;;;;;;34.25;27.58;;;;;;;22.50;100.00;99945.44;5070747;28;20219;-64
2023/08/25 03:26:06;;;;;;;36.03;28.58;;;;;;;22.54;100.00;99934.94;5072198;28;20669;-65
2023/08/25 03:28:34;;;;;;;37.70;29.35;;;;;;;22.52;100.00;99945.16;5071410;28;20264;-64
2023/08/25 03:31:02;;;;;;;31.80;28.50;;;;;;;22.47;100.00;99940.50;5073445;28;20225;-64
2023/08/25 03:33:34;;;;;;;32.40;28.27;;;;;;;22.40;100.00;99944.38;5071788;28;20217;-64
2023/08/25 03:36:02;;;;;;;29.50;24.90;;;;;;;22.39;100.00;99942.75;5075547;28;20198;-63
2023/08/25 03:38:30;;;;;;;27.73;24.60;;;;;;;22.35;100.00;99942.38;5073477;28;20238;-64
2023/08/25 03:41:00;;;;;;;27.48;24.55;;;;;;;22.29;100.00;99931.72;5073343;28;20210;-65
2023/08/25 03:43:28;;;;;;;27.30;23.80;;;;;;;22.28;100.00;99938.16;5073035;28;20231;-66
2023/08/25 03:45:56;;;;;;;26.60;23.67;;;;;;;22.28;100.00;99935.47;5075050;28;20204;-65
2023/08/25 03:48:26;;;;;;;26.02;23.27;;;;;;;22.22;100.00;99920.22;5080463;28;20207;-64
2023/08/25 03:50:54;;;;;;;24.97;22.13;;;;;;;22.14;100.00;99910.63;5075689;28;20290;-63
2023/08/25 03:53:24;;;;;;;23.60;21.13;;;;;;;22.16;100.00;99910.38;5078543;28;20279;-63
2023/08/25 03:55:53;;;;;;;22.83;20.42;;;;;;;22.21;100.00;99908.59;5074216;28;20269;-65
2023/08/25 03:58:23;;;;;;;23.90;21.40;;;;;;;22.23;100.00;99894.88;5077722;28;20337;-63
2023/08/25 04:00:53;;;;;;;26.95;22.40;;;;;;;22.23;100.00;99906.50;5073864;28;20296;-64
2023/08/25 04:03:23;;;;;;;23.63;21.00;;;;;;;22.25;100.00;99909.78;5075930;28;20242;-63
2023/08/25 04:05:51;;;;;;;23.00;20.48;;;;;;;22.26;100.00;99910.56;5074885;28;20207;-64
2023/08/25 04:08:25;;;;;;;22.80;20.55;;;;;;;22.34;100.00;99905.63;5075464;28;20225;-64
2023/08/25 04:10:57;;;;;;;25.33;19.90;;;;;;;22.42;100.00;99910.69;5079305;28;20195;-64
2023/08/25 04:13:30;;;;;;;23.40;20.92;;;;;;;22.52;100.00;99920.84;5074854;28;20208;-66
2023/08/25 04:16:02;;;;;;;22.85;20.35;;;;;;;22.58;100.00;99924.50;5075878;28;20231;-64
2023/08/25 04:18:31;;;;;;;28.10;20.17;;;;;;;22.58;100.00;99941.53;5070681;28;20214;-63
2023/08/25 04:21:01;;;;;;;22.40;19.60;;;;;;;22.63;100.00;99963.22;5074260;28;20212;-63
2023/08/25 04:23:29;;;;;;;21.83;19.63;;;;;;;22.68;100.00;99962.53;5078644;28;20945;-63
2023/08/25 04:25:58;;;;;;;22.25;19.83;;;;;;;22.70;100.00;99946.88;5077338;28;20258;-64
2023/08/25 04:28:27;;;;;;;21.05;18.92;;;;;;;22.61;100.00;99954.53;5076475;28;20209;-63
2023/08/25 04:30:55;;;;;;;21.10;18.87;;;;;;;22.44;100.00;99956.34;5077719;28;20203;-64
2023/08/25 04:33:23;;;;;;;23.03;19.50;;;;;;;22.19;100.00;99955.78;5075604;28;20298;-65
2023/08/25 04:35:51;;;;;;;19.95;18.00;;;;;;;22.09;100.00;99995.00;5077760;28;20316;-63
2023/08/25 04:38:18;;;;;;;20.65;18.40;;;;;;;22.12;100.00;100008.03;5076411;28;20207;-64
2023/08/25 04:40:46;;;;;;;21.55;18.98;;;;;;;22.27;100.00;99950.03;5076235;28;20235;-65
2023/08/25 04:43:14;;;;;;;26.05;18.85;;;;;;;22.24;100.00;99918.94;5076502;28;20223;-64
2023/08/25 04:45:43;;;;;;;20.33;18.13;;;;;;;22.21;100.00;99911.28;5074960;28;20203;-64
2023/08/25 04:48:10;;;;;;;22.65;18.88;;;;;;;22.15;100.00;99893.34;5072631;28;20231;-64
2023/08/25 04:50:39;;;;;;;21.33;18.05;;;;;;;22.16;100.00;99894.19;5076217;28;20203;-64
2023/08/25 04:53:08;;;;;;;23.23;17.07;;;;;;;22.18;100.00;99913.63;5077945;28;20284;-64
2023/08/25 04:55:36;;;;;;;21.17;18.60;;;;;;;22.28;100.00;99903.06;5074748;28;20274;-65
2023/08/25 04:58:04;;;;;;;20.00;16.35;;;;;;;22.28;100.00;99882.28;5072471;28;20204;-65
2023/08/25 05:00:35;;;;;;;19.73;17.43;;;;;;;22.25;100.00;99898.16;5075440;28;20298;-63
2023/08/25 05:03:09;;;;;;;19.38;16.23;;;;;;;22.25;100.00;99887.34;5076461;28;20867;-64
2023/08/25 05:05:45;;;;;;;19.40;16.75;;;;;;;22.25;100.00;99892.75;5074724;28;20222;-64
2023/08/25 05:08:16;;;;;;;19.37;16.60;;;;;;;22.34;100.00;99908.31;5073675;28;20946;-64
2023/08/25 05:10:44;;;;;;;18.13;14.73;;;;;;;22.41;100.00;99935.22;5073996;28;20877;-63
2023/08/25 05:13:12;;;;;;;17.23;15.43;;;;;;;22.48;100.00;99952.94;5078174;28;20720;-64
2023/08/25 05:15:39;;;;;;;20.67;15.65;;;;;;;22.55;100.00;99958.19;5072156;28;20630;-64
2023/08/25 05:18:10;;;;;;;21.30;16.35;;;;;;;22.55;100.00;99969.00;5075567;28;20671;-64
2023/08/25 05:20:40;;;;;;;17.63;15.07;;;;;;;22.58;100.00;100006.38;5076179;28;20207;-65
2023/08/25 05:23:08;;;;;;;22.58;15.32;;;;;;;22.64;100.00;100032.44;5074940;28;20245;-65
2023/08/25 05:25:36;;;;;;;18.25;14.10;;;;;;;22.68;100.00;100087.66;5077570;28;20680;-64
2023/08/25 05:28:04;;;;;;;17.10;12.90;;;;;;;22.73;100.00;100100.47;5072979;28;20203;-64
2023/08/25 05:30:32;;;;;;;18.30;12.00;;;;;;;22.69;100.00;100102.81;5074968;28;20213;-64
2023/08/25 05:33:00;;;;;;;14.18;11.82;;;;;;;22.72;100.00;100102.34;5071978;28;20290;-65
2023/08/25 05:35:29;;;;;;;16.35;11.52;;;;;;;22.73;100.00;100098.56;5075370;28;20289;-64
2023/08/25 05:37:56;;;;;;;17.02;11.63;;;;;;;22.77;100.00;100097.09;5072850;28;20212;-64
2023/08/25 05:40:24;;;;;;;16.98;11.80;;;;;;;22.76;100.00;100098.16;5074605;28;20296;-64
2023/08/25 05:42:52;;;;;;;12.93;11.40;;;;;;;22.75;100.00;100110.00;5077282;28;20338;-66
2023/08/25 05:45:19;;;;;;;17.42;13.77;;;;;;;22.74;100.00;100092.16;5076983;28;20341;-65
2023/08/25 05:47:47;;;;;;;13.95;10.60;;;;;;;22.72;100.00;100088.81;5075858;28;20593;-65
2023/08/25 05:50:15;;;;;;;12.23;8.38;;;;;;;22.62;100.00;100053.47;5072061;28;20264;-64
2023/08/25 05:52:45;;;;;;;15.95;8.35;;;;;;;22.60;100.00;100027.75;5075375;28;21209;-64
2023/08/25 05:55:13;;;;;;;15.05;8.18;;;;;;;22.53;100.00;99996.25;5072034;28;20215;-63
2023/08/25 05:57:41;;;;;;;13.88;7.20;;;;;;;22.45;100.00;100022.81;5070648;28;20215;-63
2023/08/25 06:00:09;;;;;;;11.60;6.57;;;;;;;22.45;100.00;100009.31;5071300;28;20207;-65
2023/08/25 06:02:37;;;;;;;14.93;7.22;;;;;;;22.50;100.00;99972.44;5077396;28;20618;-64
2023/08/25 06:05:07;;;;;;;12.85;7.35;;;;;;;22.46;100.00;99949.66;5073427;28;20306;-63
2023/08/25 06:07:35;;;;;;;15.10;7.95;;;;;;;22.45;100.00;99899.38;5070898;28;20295;-64
2023/08/25 06:10:05;;;;;;;12.13;6.90;;;;;;;22.44;100.00;99873.41;5073926;28;20199;-64
2023/08/25 06:12:33;;;;;;;13.23;7.22;;;;;;;22.37;100.00;99882.72;5075294;28;20211;-64
2023/08/25 06:15:01;;;;;;;14.35;6.00;;;;;;;22.29;100.00;99910.09;5074591;28;20210;-64
2023/08/25 06:17:28;;;;;;;11.65;6.30;;;;;;;22.25;100.00;99938.66;5073388;28;20530;-64
2023/08/25 06:19:57;;;;;;;12.95;5.75;;;;;;;22.22;100.00;99991.25;5074058;28;20225;-65
2023/08/25 06:22:25;;;;;;;21.35;5.53;;;;;;;22.30;100.00;100003.56;5076584;28;20285;-64
2023/08/25 06:24:54;;;;;;;9.90;4.97;;;;;;;22.40;100.00;100014.63;5074532;28;20237;-64
2023/08/25 06:27:23;;;;;;;10.68;5.07;;;;;;;22.46;100.00;100024.47;5072971;28;20213;-63
2023/08/25 06:29:51;;;;;;;11.82;4.65;;;;;;;22.51;100.00;100030.00;5074798;28;20234;-64
2023/08/25 06:32:19;;;;;;;8.35;4.68;;;;;;;22.55;100.00;99993.31;5074038;28;20211;-64
2023/08/25 06:34:48;;;;;;;17.80;5.40;;;;;;;22.49;100.00;99972.69;5073297;28;20325;-66
2023/08/25 06:37:17;;;;;;;8.05;4.75;;;;;;;22.46;100.00;99978.53;5074060;28;20280;-65
2023/08/25 06:39:47;;;;;;;11.00;5.68;;;;;;;22.37;100.00;99982.66;5074440;28;20271;-63
2023/08/25 06:42:16;;;;;;;10.70;5.28;;;;;;;22.38;100.00;100001.34;5072025;28;20245;-65
2023/08/25 06:44:48;;;;;;;10.25;5.20;;;;;;;22.43;100.00;100024.94;5072506;28;20781;-64
2023/08/25 06:47:15;;;;;;;7.88;4.53;;;;;;;22.50;100.00;100018.38;5074326;28;20207;-64
2023/08/25 06:49:43;;;;;;;10.40;3.83;;;;;;;22.44;99.01;100015.78;5072842;28;20983;-63
2023/08/25 06:52:12;;;;;;;6.50;4.68;;;;;;;22.36;99.16;100005.31;5076805;28;20235;-64
2023/08/25 06:54:40;;;;;;;7.28;4.35;;;;;;;22.28;100.00;100001.09;5075860;28;20307;-64
2023/08/25 06:57:08;;;;;;;9.43;4.40;;;;;;;22.28;100.00;100011.09;5072117;28;20722;-64
2023/08/25 06:59:35;;;;;;;7.67;4.40;;;;;;;22.29;100.00;100010.03;5074350;28;20286;-65
2023/08/25 07:02:05;;;;;;;10.43;4.55;;;;;;;22.23;100.00;100000.19;5077596;28;20755;-65
2023/08/25 07:04:33;;;;;;;8.40;4.22;;;;;;;22.21;100.00;100007.69;5074037;28;20206;-65
2023/08/25 07:07:02;;;;;;;8.07;4.20;;;;;;;22.27;98.19;100018.38;5072814;28;20203;-64
2023/08/25 07:09:29;;;;;;;9.57;4.50;;;;;;;22.23;97.15;100025.31;5074466;28;20219;-65
2023/08/25 07:11:57;;;;;;;7.70;4.23;;;;;;;22.19;97.34;100009.78;5074309;28;20595;-64
2023/08/25 07:14:27;;;;;;;10.83;4.63;;;;;;;22.10;98.24;99995.81;5074551;28;20219;-69
2023/08/25 07:16:55;;;;;;;7.72;3.92;;;;;;;22.10;98.74;100009.31;5077455;28;20302;-64
2023/08/25 07:19:24;;;;;;;8.52;4.30;;;;;;;22.11;98.62;99992.91;5072372;28;20590;-63
2023/08/25 07:21:57;;;;;;;7.45;4.20;;;;;;;22.11;97.74;99976.69;5078701;28;20207;-64
2023/08/25 07:24:25;;;;;;;10.57;4.78;;;;;;;22.13;98.00;99981.88;5078514;28;20210;-66
2023/08/25 07:26:53;;;;;;;10.47;5.17;;;;;;;22.10;98.08;99977.75;5078347;28;20235;-64
2023/08/25 07:29:21;;;;;;;13.30;4.90;;;;;;;22.10;99.21;99971.53;5077182;28;20293;-65
2023/08/25 07:31:49;;;;;;;11.20;5.40;;;;;;;22.10;99.35;99972.34;5075036;28;20223;-65
2023/08/25 07:34:18;;;;;;;9.25;5.30;;;;;;;22.10;100.00;99968.81;5077820;28;20215;-67
2023/08/25 07:36:47;;;;;;;11.50;5.63;;;;;;;22.18;100.00;99975.75;5077181;28;20894;-64
2023/08/25 07:39:15;;;;;;;10.98;5.75;;;;;;;22.25;100.00;99987.28;5076802;28;20252;-63
2023/08/25 07:41:43;;;;;;;13.43;6.07;;;;;;;22.30;99.79;100006.28;5076614;28;20277;-65
2023/08/25 07:44:11;;;;;;;10.73;6.40;;;;;;;22.39;99.12;100005.69;5078376;28;20250;-65
2023/08/25 07:46:39;;;;;;;11.60;6.38;;;;;;;22.44;98.57;100007.66;5076897;28;20323;-64
2023/08/25 07:49:07;;;;;;;9.98;6.05;;;;;;;22.53;98.68;99998.13;5077276;28;20214;-64
2023/08/25 07:51:36;;;;;;;10.80;5.97;;;;;;;22.58;98.83;100011.78;5077991;28;20230;-64
2023/08/25 07:54:08;;;;;;;16.13;6.55;;;;;;;22.63;99.19;100025.38;5078496;28;20198;-65
2023/08/25 07:56:36;;;;;;;7.68;5.30;;;;;;;22.74;98.83;100011.06;5076540;28;20680;-64
2023/08/25 07:59:05;;;;;;;11.55;5.80;;;;;;;22.81;96.50;100017.16;5076011;28;20292;-64
2023/08/25 08:01:33;;;;;;;17.05;5.80;;;;;;;22.77;97.07;100024.13;5075980;28;20661;-66
2023/08/25 08:04:01;;;;;;;10.75;5.60;;;;;;;22.64;98.57;100024.34;5071324;28;20231;-64
2023/08/25 08:06:30;;;;;;;10.18;5.60;;;;;;;22.72;98.71;100013.16;5077716;28;20600;-66
2023/08/25 08:08:58;;;;;;;12.98;6.03;;;;;;;22.79;99.30;100013.88;5079140;28;20297;-65
2023/08/25 08:11:27;;;;;;;10.88;6.18;;;;;;;22.76;99.87;100019.78;5074511;28;20221;-64
2023/08/25 08:13:54;;;;;;;10.05;6.13;;;;;;;22.75;100.00;100015.41;5078582;28;20290;-64
2023/08/25 08:16:24;;;;;;;11.15;6.07;;;;;;;22.71;100.00;100011.50;5075765;28;20298;-65
2023/08/25 08:18:52;;;;;;;9.82;5.97;;;;;;;22.80;100.00;100004.69;5074168;28;20207;-65
2023/08/25 08:21:20;;;;;;;8.45;5.50;;;;;;;22.82;100.00;100008.00;5080479;28;20226;-65
2023/08/25 08:23:49;;;;;;;9.88;4.97;;;;;;;22.84;100.00;100007.75;5077866;28;20286;-65
2023/08/25 08:26:17;;;;;;;8.68;5.80;;;;;;;22.84;100.00;100008.59;5077351;28;20223;-65
2023/08/25 08:28:46;;;;;;;7.85;5.28;;;;;;;23.05;100.00;100022.47;5076285;28;20214;-65
2023/08/25 08:31:18;;;;;;;7.15;4.70;;;;;;;23.20;100.00;100003.88;5077266;28;20222;-65
2023/08/25 08:33:46;;;;;;;7.38;5.10;;;;;;;23.41;99.33;100002.34;5076600;28;20207;-66
2023/08/25 08:36:16;;;;;;;12.13;4.97;;;;;;;23.45;97.44;100012.44;5076164;28;20207;-64
2023/08/25 08:38:44;;;;;;;9.07;4.70;;;;;;;23.51;95.88;100016.91;5077080;28;20266;-64
2023/08/25 08:41:12;;;;;;;8.98;4.97;;;;;;;23.59;96.16;100030.03;5077155;28;20263;-64
2023/08/25 08:43:42;;;;;;;7.93;4.30;;;;;;;23.91;95.39;100051.19;5076773;28;20207;-64
2023/08/25 08:46:15;;;;;;;8.40;4.63;;;;;;;24.35;92.09;100050.28;5075884;28;20234;-64
2023/08/25 08:48:43;;;;;;;11.20;4.30;;;;;;;24.69;90.16;100039.38;5076309;28;20223;-64
2023/08/25 08:51:16;;;;;;;8.18;3.67;;;;;;;24.90;85.61;100027.69;5075822;28;20309;-65
2023/08/25 08:53:44;;;;;;;9.93;4.00;;;;;;;24.89;83.74;100033.41;5076153;28;20257;-64
2023/08/25 08:56:13;;;;;;;8.75;3.60;;;;;;;24.95;83.93;100033.25;5074126;28;20765;-65
2023/08/25 08:58:42;;;;;;;6.07;3.50;;;;;;;25.10;83.34;100024.44;5073117;28;20211;-65
2023/08/25 09:01:11;;;;;;;5.85;3.55;;;;;;;25.24;82.58;100024.88;5076091;28;20811;-64
2023/08/25 09:03:39;;;;;;;6.50;3.53;;;;;;;25.44;80.96;100025.09;5075579;28;20203;-66
2023/08/25 09:06:07;;;;;;;6.13;3.72;;;;;;;25.82;78.25;100029.56;5074003;28;20237;-65
2023/08/25 09:08:35;;;;;;;5.80;3.25;;;;;;;25.98;78.18;100035.91;5074665;28;20314;-64
2023/08/25 09:11:04;;;;;;;4.60;3.30;;;;;;;26.01;77.21;100033.53;5076061;28;20249;-65
2023/08/25 09:13:36;;;;;;;5.85;3.70;;;;;;;26.13;75.78;100027.88;5075218;28;20260;-65
2023/08/25 09:16:12;;;;;;;7.93;3.50;;;;;;;26.07;76.43;100018.06;5076118;28;20206;-64
2023/08/25 09:18:40;;;;;;;5.65;2.78;;;;;;;25.93;76.73;100015.00;5071608;28;20234;-65
2023/08/25 09:21:17;;;;;;;7.03;3.58;;;;;;;26.04;75.40;99997.66;5076416;28;20285;-65
2023/08/25 09:23:55;;;;;;;4.75;2.90;;;;;;;26.01;74.89;99987.34;5074866;28;20257;-64
2023/08/25 09:26:24;;;;;;;8.48;2.90;;;;;;;25.91;75.22;99986.44;5076153;28;20313;-64
2023/08/25 09:28:54;;;;;;;7.70;2.90;;;;;;;25.65;76.39;99982.69;5076964;28;20700;-65
2023/08/25 09:31:24;;;;;;;5.45;2.58;;;;;;;25.49;76.56;99977.13;5074712;28;20326;-63
2023/08/25 09:33:58;;;;;;;3.67;2.58;;;;;;;25.44;76.58;99987.09;5074790;28;20286;-64
2023/08/25 09:36:26;;;;;;;5.13;2.63;;;;;;;25.35;77.13;99994.06;5077306;28;20223;-64
2023/08/25 09:38:54;;;;;;;7.43;2.60;;;;;;;25.27;77.31;99995.34;5075318;28;20500;-64
2023/08/25 09:41:28;;;;;;;5.82;2.35;;;;;;;25.33;75.64;99990.78;5074152;28;20226;-63
2023/08/25 09:43:57;;;;;;;7.18;2.78;;;;;;;25.27;75.59;99975.53;5073567;28;20751;-66
2023/08/25 09:46:30;;;;;;;6.28;2.63;;;;;;;25.13;75.14;99987.88;5075269;28;20753;-65
2023/08/25 09:49:02;;;;;;;6.15;2.80;;;;;;;25.09;75.82;99993.78;5073277;28;20199;-66
2023/08/25 09:51:35;;;;;;;6.43;2.53;;;;;;;25.09;76.31;99969.38;5071738;28;20321;-66
2023/08/25 09:54:08;;;;;;;8.18;2.70;;;;;;;25.01;76.95;99971.72;5072872;28;20203;-64
2023/08/25 09:56:37;;;;;;;5.05;2.40;;;;;;;24.95;77.01;99975.47;5073675;28;20318;-65
2023/08/25 09:59:06;;;;;;;4.68;2.95;;;;;;;24.95;77.45;99980.88;5074260;28;20285;-64
2023/08/25 10:01:36;;;;;;;5.93;2.55;;;;;;;24.91;77.68;99967.00;5073749;28;20206;-64
2023/08/25 10:04:05;;;;;;;10.15;2.72;;;;;;;24.98;77.03;99966.84;5069367;28;20211;-64
2023/08/25 10:06:36;;;;;;;5.60;2.80;;;;;;;25.00;76.45;99956.53;5074841;28;20777;-64
2023/08/25 10:09:05;;;;;;;7.13;2.95;;;;;;;25.05;76.40;99962.84;5073425;28;20745;-64
2023/08/25 10:11:37;;;;;;;5.05;2.50;;;;;;;25.13;75.75;99958.03;5074155;28;20210;-66
2023/08/25 10:14:07;;;;;;;3.67;2.38;;;;;;;25.13;75.86;99952.59;5075137;28;20211;-65
2023/08/25 10:16:40;;;;;;;6.00;2.58;;;;;;;25.16;75.43;99946.63;5072652;28;20215;-64
2023/08/25 10:19:13;;;;;;;6.70;2.40;;;;;;;25.14;74.88;99943.38;5072104;28;20210;-65
2023/08/25 10:21:44;;;;;;;8.43;3.08;;;;;;;25.25;75.10;99954.06;5074072;28;20314;-65
2023/08/25 10:24:14;;;;;;;6.05;2.60;;;;;;;25.35;74.95;99967.72;5076247;28;20226;-64
2023/08/25 10:26:43;;;;;;;4.13;2.40;;;;;;;25.51;73.85;99976.81;5075366;28;20235;-67
2023/08/25 10:29:13;;;;;;;6.18;2.65;;;;;;;25.34;74.39;99976.94;5076850;28;20210;-65
2023/08/25 10:31:47;;;;;;;5.57;2.63;;;;;;;25.33;74.63;99977.22;5075803;28;20243;-65
2023/08/25 10:34:31;;;;;;;8.13;2.67;;;;;;;25.31;75.49;99971.22;5072356;28;20217;-65
2023/08/25 10:37:10;;;;;;;5.25;2.65;;;;;;;25.27;75.24;99965.50;5071157;28;20298;-64
2023/08/25 10:39:48;;;;;;;7.13;2.65;;;;;;;25.16;76.41;99965.63;5076741;28;20287;-65
2023/08/25 10:42:21;;;;;;;6.88;2.30;;;;;;;25.07;76.14;99974.22;5072675;28;20304;-64
2023/08/25 10:44:54;;;;;;;8.65;2.70;;;;;;;25.02;76.79;99967.94;5073845;28;20234;-64
2023/08/25 10:47:23;;;;;;;9.30;2.90;;;;;;;25.04;76.42;99965.81;5072967;28;20707;-64
2023/08/25 10:49:55;;;;;;;4.25;2.38;;;;;;;25.17;76.03;99973.53;5071200;28;20218;-65
2023/08/25 10:52:23;;;;;;;6.72;2.58;;;;;;;25.11;76.70;99971.84;5074396;28;20200;-64
2023/08/25 10:54:52;;;;;;;7.07;2.60;;;;;;;25.06;77.16;99959.06;5071928;28;20209;-66
2023/08/25 10:57:22;;;;;;;5.72;2.60;;;;;;;25.13;77.49;99958.84;5078219;28;20241;-64
2023/08/25 10:59:51;;;;;;;5.43;2.50;;;;;;;25.13;76.64;99958.84;5080335;28;20206;-65
2023/08/25 11:02:36;;;;;;;8.10;2.55;;;;;;;25.07;77.25;99960.66;5075448;28;20203;-64
2023/08/25 11:05:43;;;;;;;5.13;2.80;;;;;;;25.07;76.55;99971.53;5078721;28;20578;-64
2023/08/25 11:08:25;;;;;;;6.75;2.90;;;;;;;25.02;77.35;99979.63;5079837;28;20257;-64
2023/08/25 11:11:10;;;;;;;6.00;2.60;;;;;;;24.96;78.26;99963.53;5079272;28;20221;-66
2023/08/25 11:13:40;;;;;;;5.13;2.75;;;;;;;25.03;77.20;99964.97;5075371;28;20904;-69
2023/08/25 11:16:10;;;;;;;5.88;2.63;;;;;;;25.07;77.13;99971.53;5075274;28;20644;-65
2023/08/25 11:18:41;;;;;;;5.65;2.38;;;;;;;25.02;77.61;99979.63;5073099;28;20778;-64
2023/08/25 11:21:09;;;;;;;3.83;2.42;;;;;;;25.04;77.70;99977.47;5079044;28;20218;-65
2023/08/25 11:23:38;;;;;;;5.20;2.83;;;;;;;25.05;77.50;99973.69;5075755;28;20207;-64
2023/08/25 11:26:08;;;;;;;5.30;2.88;;;;;;;25.04;77.42;99980.19;5081265;28;20873;-65